My Meet Scores
Lyla Zito, Flipstar Gymnastics Academy - MyMeetScores.com
Top100 | Top Teams | Upcoming Meets | Completed Meets | Latest | Add Scores | Help| Support | Bookmark and Share

Lyla Zito, Flipstar Gymnastics Academy
Personal Bests
LevelVault BarsBeamFloorAA
39.6509.475 8.8259.40036.900
49.2009.700 9.5759.45037.875
59.2008.675 8.8508.82535.550
69.0009.550 9.4259.42536.750
Meet Scores
Date Meet Team Session Level Division Vault Bars Beam Floor AA
2020-02-28 MEGA Spring Invite 2020 Flipstar Gymnastics Academy 2 6 Junior 8.625 16T 9.350 9 8.525 19T 9.150 10 35.650 15
2020-02-21 Kinetic Classic Flipstar Gymnastics Academy 01 6 Middle 8.975 21 9.350 4T 9.000 34 9.425 5 36.750 9
2020-02-07 IGI Chicago Style Meet Flipstar Gymnastics Academy 213 6 B 8.750 11 8.700 10T 7.850 20 9.250 11T 34.550 16
2020-01-30 Circle of Stars Flipstar Gymnastics Center B09 6 Jr B 8.550 11 8.925 7 0.000 13 9.100 2 26.575 12
2020-01-24 Sand Dollar Invitational 2020 Flipstar Gymnastics Academy D06 6 Jr B 9.000 1T 9.550 3 8.550 15T 8.675 17 35.775 10
2019-12-13 Crossroads Classic Flipstar Gymnastics Academy 7 6 Jr B 8.150 20T 9.275 2T 8.700 16 9.125 10 35.250 13
2019-12-07 Home for the Holidays 2019 Flipstar Gymnastics Academy 6 6 Middle 8.800 4T 8.800 6T 9.425 3 9.175 5 36.200 5
2019-11-08 Illinois Judges Cup Flipstar Gymnastics Academy P3 5 All Ages 9.200 4T 8.675 15 8.850 11 8.825 17 35.550 11
2019-03-22 Illinois Gymnastics State Championships Flipstar Gymnastics Academy 5 4 JR C 9.150 2T 9.700 3 9.575 3 9.450 3 37.875 2
2019-03-01 2019 MEGA Spring Invite Flipstar Gymnastics Academy All 4 All Ages 9.100 15T 9.250 11T 9.250 25T 9.150 31T 36.750 15
2019-02-23 Kinetic Classic 2019 Flipstar Gymnastics Academy 1 4 Middle 8.525 15T 9.425 10T 9.300 6 9.150 6T 36.400 8
2019-02-08 Midwest Twisters Harley Meet Womens Flipstar Gymnastics Academy T09 4 10b 9.200 1 8.600 8 9.100 6T 9.000 5T 35.900 4
2019-01-25 King Arthur Invitational Flipstar Gymnastics Academy 1 4 Sr B 8.775 2T 9.350 2 9.150 4 9.125 3 36.400 2
2019-01-11 Circle of Stars Gymnastics Flipstar Gymnastics Academy C06 4 Junior C 8.950 3T 9.450 1 9.300 2 9.350 2 37.050 1
2018-12-07 Horton Invite Flipstar Gymnastics Academy 1 4 Yth B 9.000 2T 9.600 1 9.100 8 9.250 4 36.950 1
2018-03-08 Level 4 & 5 State Flipstar Gymnastics Academy All 4 Yh B 8.750 11T 8.275 19 9.400 7 8.825 14T 35.250 13
2018-02-23 Kinetic Classic Flipstar Gymnastics Academy 7 4 Middle 8.650 23T 8.400 60T 8.500 74 9.250 27T 34.800 43
2018-02-16 Big Classic Flipstar Gymnastics Academy 7B 4 Child C 8.875 5 8.900 8 9.425 7 9.200 6T 36.400 6
2018-02-09 IGI Chicago Style Gymnastics Meet Flipstar Gymnastics Academy 2 4 211 Lake Shore Dr L4 B 8.250 16 8.100 20 8.725 14 8.600 11 33.675 16
2018-01-26 King Arthur Invitational Flipstar Gymnastics Academy 2 4 Jr B 8.350 9 8.575 7 8.900 8 8.625 11 34.450 8
2018-01-19 Sand Dollar/ Whitlow Invitational Flipstar Gymnastics Academy E06 4 Jr B 8.650 8 8.200 11 9.100 7 8.875 8 34.825 8
2017-12-08 Horton Invite At IWU Shirk Center Flipstar Gymnastics Academy All 4 Ch B 8.625 13 8.400 14 8.700 19 8.850 14T 34.575 16
2017-11-17 SCGA Classic Flipstar Gymnastics Academy 2 4 JrA 9.025 4 8.700 3 8.775 7 8.850 7 35.350 5
2017-11-10 Illinois NAWGJ Judges Cup 2017 Flipstar Gymnastics Academy G3 4 All Ages 8.650 19 9.075 25T 8.625 33T 8.125 51T 34.475 27
2017-03-30 2017 Illinois Level 3 & 5 State Flipstar Gymnastics Academy All 3 Yh D 9.650 7T 9.150 16T 8.825 17T 9.275 7T 36.900 11
2017-02-24 Kinetic Classic Flipstar Gymnastics Academy 4,5,6,7 3 All Ages 9.525 4T 8.525 76T 8.575 70T 9.400 10T 36.025 45
2017-02-17 Big Classic Flipstar Gymnastics Academy B 3 Child B 9.350 6 9.025 6T 8.450 19 9.375 4 36.200 6
2017-02-10 IGI Chicago Style Gymnastics Meet Flipstar Gymnastics Academy 222L 3 JrB 9.150 7 9.475 2 8.525 15 9.200 4 36.350 4
2016-12-09 Horton Invitational Flipstar Gymnastics Academy 8 3 JrD 9.250 3 8.825 5 8.700 6 8.675 9 35.450 5
2016-11-11 2016 Illinois Judges Cup Flipstar Gymnastics Academy B5 3 8 Year Old 9.600 1 9.100 1 8.650 3 8.900 4 36.250 1
Get your scores on
a t-shirt, pin, or hoodie

www.lazysuits.com